Terminal Aerodrome Forecast
Issued by NWS Green Bay, WI

Home | Current Version | Previous Version | Graphics & Text | Print | Product List | Glossary On
Versions: 1 2 3 4 5 6 7 8 9 10 11 12 13 14 15 16 17 18 19 20 21 22 23 24 25 26 27 28 29 30 31 32 33 34 35 36 37 38 39 40 41 42 43 44 45 46 47 48 49 50
160
FTUS43 KGRB 201044 AAB
TAFGRB
TAF AMD
KGRB 201044Z 2011/2106 05006KT 1/4SM -RA FG VV002
     FM201400 06003KT 2SM -RA BR OVC004
     FM201600 07006KT 3SM BR SCT004 OVC020
     FM202300 09003KT 5SM BR SCT005 BKN012=

USA.gov is the U.S. government's official web portal to all federal, state and local government web resources and services.